sensor_id;sensor_type;location;lat;lon;timestamp;pressure;altitude;pressure_sealevel;temperature;humidity
62548;BME280;48602;45.192;5.722;2022-08-21T00:00:25;99210.22;;;22.00;61.36
62548;BME280;48602;45.192;5.722;2022-08-21T00:02:58;99209.75;;;21.94;61.90
62548;BME280;48602;45.192;5.722;2022-08-21T00:05:25;99204.63;;;21.91;62.18
62548;BME280;48602;45.192;5.722;2022-08-21T00:07:51;99204.63;;;21.91;62.19
62548;BME280;48602;45.192;5.722;2022-08-21T00:10:18;99202.94;;;21.90;62.30
62548;BME280;48602;45.192;5.722;2022-08-21T00:12:44;99206.47;;;21.91;62.40
62548;BME280;48602;45.192;5.722;2022-08-21T00:15:13;99203.78;;;21.91;62.25
62548;BME280;48602;45.192;5.722;2022-08-21T00:17:41;99205.63;;;21.90;62.65
62548;BME280;48602;45.192;5.722;2022-08-21T00:20:09;99207.44;;;21.90;63.29
62548;BME280;48602;45.192;5.722;2022-08-21T00:22:35;99206.84;;;21.86;63.93
62548;BME280;48602;45.192;5.722;2022-08-21T00:25:01;99200.03;;;21.82;64.13
62548;BME280;48602;45.192;5.722;2022-08-21T00:27:27;99206.78;;;21.77;64.59
62548;BME280;48602;45.192;5.722;2022-08-21T00:29:52;99207.06;;;21.74;64.68
62548;BME280;48602;45.192;5.722;2022-08-21T00:32:26;99218.88;;;21.71;65.34
62548;BME280;48602;45.192;5.722;2022-08-21T00:34:52;99213.78;;;21.68;65.55
62548;BME280;48602;45.192;5.722;2022-08-21T00:37:18;99219.41;;;21.65;65.74
62548;BME280;48602;45.192;5.722;2022-08-21T00:39:44;99214.03;;;21.65;65.84
62548;BME280;48602;45.192;5.722;2022-08-21T00:42:11;99217.56;;;21.66;66.13
62548;BME280;48602;45.192;5.722;2022-08-21T00:44:46;99217.69;;;21.64;65.82
62548;BME280;48602;45.192;5.722;2022-08-21T00:47:13;99217.13;;;21.61;66.11
62548;BME280;48602;45.192;5.722;2022-08-21T00:49:39;99219.81;;;21.61;65.87
62548;BME280;48602;45.192;5.722;2022-08-21T00:52:07;99214.56;;;21.59;65.76
62548;BME280;48602;45.192;5.722;2022-08-21T00:54:35;99209.31;;;21.57;65.83
62548;BME280;48602;45.192;5.722;2022-08-21T00:57:12;99211.16;;;21.57;65.62
62548;BME280;48602;45.192;5.722;2022-08-21T00:59:40;99202.38;;;21.55;65.36
62548;BME280;48602;45.192;5.722;2022-08-21T01:02:08;99207.88;;;21.53;65.77
62548;BME280;48602;45.192;5.722;2022-08-21T01:04:34;99212.50;;;21.51;66.41
62548;BME280;48602;45.192;5.722;2022-08-21T01:07:00;99218.84;;;21.50;66.34
62548;BME280;48602;45.192;5.722;2022-08-21T01:09:26;99215.44;;;21.48;66.57
62548;BME280;48602;45.192;5.722;2022-08-21T01:11:51;99215.00;;;21.43;66.05
62548;BME280;48602;45.192;5.722;2022-08-21T01:14:17;99209.88;;;21.40;66.47
62548;BME280;48602;45.192;5.722;2022-08-21T01:16:47;99202.81;;;21.39;65.85
62548;BME280;48602;45.192;5.722;2022-08-21T01:19:13;99202.94;;;21.38;66.36
62548;BME280;48602;45.192;5.722;2022-08-21T01:21:40;99200.50;;;21.35;66.53
62548;BME280;48602;45.192;5.722;2022-08-21T01:24:06;99205.00;;;21.34;66.52
62548;BME280;48602;45.192;5.722;2022-08-21T01:26:33;99205.13;;;21.33;66.69
62548;BME280;48602;45.192;5.722;2022-08-21T01:29:13;99206.97;;;21.32;66.67
62548;BME280;48602;45.192;5.722;2022-08-21T01:31:40;99204.53;;;21.29;66.89
62548;BME280;48602;45.192;5.722;2022-08-21T01:34:06;99209.03;;;21.29;67.56
62548;BME280;48602;45.192;5.722;2022-08-21T01:36:32;99209.31;;;21.26;67.58
62548;BME280;48602;45.192;5.722;2022-08-21T01:38:59;99215.78;;;21.23;67.68
62548;BME280;48602;45.192;5.722;2022-08-21T01:41:25;99211.53;;;21.20;67.73
62548;BME280;48602;45.192;5.722;2022-08-21T01:43:50;99207.34;;;21.16;67.79
62548;BME280;48602;45.192;5.722;2022-08-21T01:46:16;99206.63;;;21.14;68.39
62548;BME280;48602;45.192;5.722;2022-08-21T01:48:42;99204.91;;;21.13;68.27
62548;BME280;48602;45.192;5.722;2022-08-21T01:51:08;99209.81;;;21.08;68.33
62548;BME280;48602;45.192;5.722;2022-08-21T01:53:35;99205.06;;;21.01;68.24
62548;BME280;48602;45.192;5.722;2022-08-21T01:56:04;99203.72;;;20.95;66.55
62548;BME280;48602;45.192;5.722;2022-08-21T01:58:29;99196.09;;;20.90;67.19
62548;BME280;48602;45.192;5.722;2022-08-21T02:00:55;99190.97;;;20.87;67.53
62548;BME280;48602;45.192;5.722;2022-08-21T02:03:20;99198.16;;;20.87;67.41
62548;BME280;48602;45.192;5.722;2022-08-21T02:05:46;99194.75;;;20.85;67.41
62548;BME280;48602;45.192;5.722;2022-08-21T02:08:11;99199.13;;;20.86;68.63
62548;BME280;48602;45.192;5.722;2022-08-21T02:10:37;99199.38;;;20.83;67.75
62548;BME280;48602;45.192;5.722;2022-08-21T02:13:02;99200.34;;;20.82;68.33
62548;BME280;48602;45.192;5.722;2022-08-21T02:15:29;99197.78;;;20.80;67.18
62548;BME280;48602;45.192;5.722;2022-08-21T02:17:57;99200.47;;;20.80;67.54
62548;BME280;48602;45.192;5.722;2022-08-21T02:20:27;99197.22;;;20.77;67.83
62548;BME280;48602;45.192;5.722;2022-08-21T02:22:52;99200.13;;;20.74;67.90
62548;BME280;48602;45.192;5.722;2022-08-21T02:25:19;99198.44;;;20.73;67.90
62548;BME280;48602;45.192;5.722;2022-08-21T02:27:46;99196.97;;;20.69;67.60
62548;BME280;48602;45.192;5.722;2022-08-21T02:30:19;99190.25;;;20.63;66.72
62548;BME280;48602;45.192;5.722;2022-08-21T02:32:44;99193.22;;;20.60;66.77
62548;BME280;48602;45.192;5.722;2022-08-21T02:35:10;99197.09;;;20.56;66.83
62548;BME280;48602;45.192;5.722;2022-08-21T02:37:53;99205.38;;;20.53;67.11
62548;BME280;48602;45.192;5.722;2022-08-21T02:40:22;99202.81;;;20.51;66.96
62548;BME280;48602;45.192;5.722;2022-08-21T02:42:49;99190.50;;;20.49;67.57
62548;BME280;48602;45.192;5.722;2022-08-21T02:45:15;99199.66;;;20.46;67.87
62548;BME280;48602;45.192;5.722;2022-08-21T02:47:57;99185.53;;;20.44;68.40
62548;BME280;48602;45.192;5.722;2022-08-21T02:50:27;99181.28;;;20.42;68.35
62548;BME280;48602;45.192;5.722;2022-08-21T02:52:53;99185.78;;;20.41;67.73
62548;BME280;48602;45.192;5.722;2022-08-21T02:55:20;99188.47;;;20.41;68.54
62548;BME280;48602;45.192;5.722;2022-08-21T02:57:47;99176.03;;;20.40;68.01
62548;BME280;48602;45.192;5.722;2022-08-21T03:00:13;99186.03;;;20.38;67.88
62548;BME280;48602;45.192;5.722;2022-08-21T03:02:39;99190.53;;;20.38;69.12
62548;BME280;48602;45.192;5.722;2022-08-21T03:05:08;99181.97;;;20.33;70.56
62548;BME280;48602;45.192;5.722;2022-08-21T03:07:35;99186.69;;;20.29;70.89
62548;BME280;48602;45.192;5.722;2022-08-21T03:10:01;99179.78;;;20.27;70.81
62548;BME280;48602;45.192;5.722;2022-08-21T03:12:26;99179.78;;;20.27;71.05
62548;BME280;48602;45.192;5.722;2022-08-21T03:14:51;99182.47;;;20.27;71.30
62548;BME280;48602;45.192;5.722;2022-08-21T03:17:17;99174.44;;;20.27;70.95
62548;BME280;48602;45.192;5.722;2022-08-21T03:19:42;99184.28;;;20.26;71.45
62548;BME280;48602;45.192;5.722;2022-08-21T03:22:08;99174.56;;;20.25;71.49
62548;BME280;48602;45.192;5.722;2022-08-21T03:24:33;99171.03;;;20.25;71.58
62548;BME280;48602;45.192;5.722;2022-08-21T03:26:59;99172.72;;;20.26;71.95
62548;BME280;48602;45.192;5.722;2022-08-21T03:29:25;99175.53;;;20.24;71.78
62548;BME280;48602;45.192;5.722;2022-08-21T03:31:50;99165.66;;;20.25;72.07
62548;BME280;48602;45.192;5.722;2022-08-21T03:34:18;99164.81;;;20.24;71.94
62548;BME280;48602;45.192;5.722;2022-08-21T03:36:44;99163.84;;;20.25;72.18
62548;BME280;48602;45.192;5.722;2022-08-21T03:39:09;99162.03;;;20.26;72.37
62548;BME280;48602;45.192;5.722;2022-08-21T03:41:34;99159.34;;;20.26;72.51
62548;BME280;48602;45.192;5.722;2022-08-21T03:44:00;99161.16;;;20.25;71.76
62548;BME280;48602;45.192;5.722;2022-08-21T03:46:25;99157.63;;;20.25;71.92
62548;BME280;48602;45.192;5.722;2022-08-21T03:48:50;99160.44;;;20.23;72.77
62548;BME280;48602;45.192;5.722;2022-08-21T03:51:18;99165.78;;;20.23;72.27
62548;BME280;48602;45.192;5.722;2022-08-21T03:53:44;99164.81;;;20.24;72.89
62548;BME280;48602;45.192;5.722;2022-08-21T03:56:10;99172.84;;;20.24;72.25
62548;BME280;48602;45.192;5.722;2022-08-21T03:58:36;99172.13;;;20.22;72.06
62548;BME280;48602;45.192;5.722;2022-08-21T04:01:04;99171.25;;;20.21;71.90
62548;BME280;48602;45.192;5.722;2022-08-21T04:03:31;99171.38;;;20.20;71.82
62548;BME280;48602;45.192;5.722;2022-08-21T04:05:57;99178.78;;;20.16;71.99
62548;BME280;48602;45.192;5.722;2022-08-21T04:08:23;99170.03;;;20.14;71.77
62548;BME280;48602;45.192;5.722;2022-08-21T04:10:51;99175.38;;;20.14;72.16
62548;BME280;48602;45.192;5.722;2022-08-21T04:13:18;99175.50;;;20.13;72.39
62548;BME280;48602;45.192;5.722;2022-08-21T04:15:43;99178.28;;;20.11;72.50
62548;BME280;48602;45.192;5.722;2022-08-21T04:18:09;99176.63;;;20.10;73.23
62548;BME280;48602;45.192;5.722;2022-08-21T04:20:35;99178.44;;;20.10;73.64
62548;BME280;48602;45.192;5.722;2022-08-21T04:23:01;99188.41;;;20.08;73.58
62548;BME280;48602;45.192;5.722;2022-08-21T04:25:27;99182.44;;;20.04;74.01
62548;BME280;48602;45.192;5.722;2022-08-21T04:27:53;99179.88;;;20.03;73.94
62548;BME280;48602;45.192;5.722;2022-08-21T04:30:19;99187.06;;;20.02;73.91
62548;BME280;48602;45.192;5.722;2022-08-21T04:32:49;99186.44;;;19.99;73.86
62548;BME280;48602;45.192;5.722;2022-08-21T04:35:20;99185.81;;;19.95;73.95
62548;BME280;48602;45.192;5.722;2022-08-21T04:37:46;99188.75;;;19.92;74.36
62548;BME280;48602;45.192;5.722;2022-08-21T04:40:14;99183.63;;;19.89;74.52
62548;BME280;48602;45.192;5.722;2022-08-21T04:42:49;99182.88;;;19.87;74.79
62548;BME280;48602;45.192;5.722;2022-08-21T04:45:28;99184.72;;;19.86;74.79
62548;BME280;48602;45.192;5.722;2022-08-21T04:47:57;99180.31;;;19.85;74.78
62548;BME280;48602;45.192;5.722;2022-08-21T04:50:30;99189.31;;;19.84;74.83
62548;BME280;48602;45.192;5.722;2022-08-21T04:52:56;99192.75;;;19.86;74.80
62548;BME280;48602;45.192;5.722;2022-08-21T04:55:23;99191.88;;;19.86;74.96
62548;BME280;48602;45.192;5.722;2022-08-21T04:57:50;99191.16;;;19.84;74.77
62548;BME280;48602;45.192;5.722;2022-08-21T05:00:19;99193.59;;;19.87;75.15
62548;BME280;48602;45.192;5.722;2022-08-21T05:02:46;99196.38;;;19.85;75.38
62548;BME280;48602;45.192;5.722;2022-08-21T05:05:13;99196.38;;;19.85;75.26
62548;BME280;48602;45.192;5.722;2022-08-21T05:07:39;99201.84;;;19.84;74.89
62548;BME280;48602;45.192;5.722;2022-08-21T05:10:05;99201.13;;;19.82;75.05
62548;BME280;48602;45.192;5.722;2022-08-21T05:12:33;99199.41;;;19.81;75.49
62548;BME280;48602;45.192;5.722;2022-08-21T05:14:59;99195.75;;;19.82;75.33
62548;BME280;48602;45.192;5.722;2022-08-21T05:17:24;99197.59;;;19.81;75.54
62548;BME280;48602;45.192;5.722;2022-08-21T05:19:49;99200.25;;;19.81;75.39
62548;BME280;48602;45.192;5.722;2022-08-21T05:22:22;99202.06;;;19.81;75.66
62548;BME280;48602;45.192;5.722;2022-08-21T05:24:50;99201.13;;;19.82;75.50
62548;BME280;48602;45.192;5.722;2022-08-21T05:27:16;99212.66;;;19.82;75.19
62548;BME280;48602;45.192;5.722;2022-08-21T05:29:42;99210.00;;;19.82;75.75
62548;BME280;48602;45.192;5.722;2022-08-21T05:32:10;99213.28;;;19.86;75.22
62548;BME280;48602;45.192;5.722;2022-08-21T05:34:36;99206.84;;;19.89;75.08
62548;BME280;48602;45.192;5.722;2022-08-21T05:37:02;99212.94;;;19.91;75.25
62548;BME280;48602;45.192;5.722;2022-08-21T05:39:27;99215.41;;;19.94;74.74
62548;BME280;48602;45.192;5.722;2022-08-21T05:41:53;99208.19;;;19.94;75.29
62548;BME280;48602;45.192;5.722;2022-08-21T05:44:18;99208.06;;;19.96;75.41
62548;BME280;48602;45.192;5.722;2022-08-21T05:46:44;99212.34;;;19.98;74.96
62548;BME280;48602;45.192;5.722;2022-08-21T05:49:10;99210.53;;;19.99;74.93
62548;BME280;48602;45.192;5.722;2022-08-21T05:51:35;99208.81;;;19.98;74.83
62548;BME280;48602;45.192;5.722;2022-08-21T05:54:01;99213.19;;;19.99;75.02
62548;BME280;48602;45.192;5.722;2022-08-21T05:56:26;99218.31;;;20.02;75.35
62548;BME280;48602;45.192;5.722;2022-08-21T05:58:52;99217.22;;;20.04;74.75
62548;BME280;48602;45.192;5.722;2022-08-21T06:01:17;99219.41;;;19.99;74.55
62548;BME280;48602;45.192;5.722;2022-08-21T06:03:42;99222.50;;;19.82;74.48
62548;BME280;48602;45.192;5.722;2022-08-21T06:06:08;99223.47;;;19.70;74.48
62548;BME280;48602;45.192;5.722;2022-08-21T06:08:35;99229.38;;;19.62;75.09
62548;BME280;48602;45.192;5.722;2022-08-21T06:11:03;99232.41;;;19.58;75.17
62548;BME280;48602;45.192;5.722;2022-08-21T06:13:29;99228.69;;;19.47;75.05
62548;BME280;48602;45.192;5.722;2022-08-21T06:16:13;99226.69;;;19.38;75.80
62548;BME280;48602;45.192;5.722;2022-08-21T06:18:39;99222.03;;;19.29;76.06
62548;BME280;48602;45.192;5.722;2022-08-21T06:21:06;99239.50;;;19.22;76.60
62548;BME280;48602;45.192;5.722;2022-08-21T06:23:32;99225.81;;;19.14;76.76
62548;BME280;48602;45.192;5.722;2022-08-21T06:25:57;99231.66;;;19.08;76.92
62548;BME280;48602;45.192;5.722;2022-08-21T06:28:23;99235.28;;;19.07;78.06
62548;BME280;48602;45.192;5.722;2022-08-21T06:30:49;99231.13;;;19.03;78.03
62548;BME280;48602;45.192;5.722;2022-08-21T06:33:14;99228.66;;;19.00;77.87
62548;BME280;48602;45.192;5.722;2022-08-21T06:35:39;99229.63;;;18.99;78.21
62548;BME280;48602;45.192;5.722;2022-08-21T06:38:05;99226.00;;;19.00;78.71
62548;BME280;48602;45.192;5.722;2022-08-21T06:40:31;99229.31;;;19.03;78.46
62548;BME280;48602;45.192;5.722;2022-08-21T06:42:57;99228.22;;;19.06;78.04
62548;BME280;48602;45.192;5.722;2022-08-21T06:45:23;99218.38;;;19.06;78.28
62548;BME280;48602;45.192;5.722;2022-08-21T06:47:48;99223.53;;;19.09;78.33
62548;BME280;48602;45.192;5.722;2022-08-21T06:50:14;99220.47;;;19.14;77.76
62548;BME280;48602;45.192;5.722;2022-08-21T06:52:39;99221.88;;;19.20;77.63
62548;BME280;48602;45.192;5.722;2022-08-21T06:55:08;99222.28;;;19.26;77.58
62548;BME280;48602;45.192;5.722;2022-08-21T06:57:34;99232.16;;;19.37;77.65
62548;BME280;48602;45.192;5.722;2022-08-21T06:59:59;99222.84;;;19.42;77.30
62548;BME280;48602;45.192;5.722;2022-08-21T07:02:24;99231.03;;;19.52;76.71
62548;BME280;48602;45.192;5.722;2022-08-21T07:04:50;99225.13;;;19.60;76.20
62548;BME280;48602;45.192;5.722;2022-08-21T07:07:16;99230.00;;;19.66;76.18
62548;BME280;48602;45.192;5.722;2022-08-21T07:09:42;99232.22;;;19.72;75.82
62548;BME280;48602;45.192;5.722;2022-08-21T07:12:08;99233.44;;;19.79;76.10
62548;BME280;48602;45.192;5.722;2022-08-21T07:14:36;99228.38;;;19.87;75.81
62548;BME280;48602;45.192;5.722;2022-08-21T07:17:01;99235.09;;;19.93;75.22
62548;BME280;48602;45.192;5.722;2022-08-21T07:19:27;99235.56;;;19.98;74.92
62548;BME280;48602;45.192;5.722;2022-08-21T07:21:57;99236.81;;;20.05;74.82
62548;BME280;48602;45.192;5.722;2022-08-21T07:24:23;99230.97;;;20.11;74.83
62548;BME280;48602;45.192;5.722;2022-08-21T07:26:48;99229.66;;;20.16;74.23
62548;BME280;48602;45.192;5.722;2022-08-21T07:29:14;99222.88;;;20.24;73.70
62548;BME280;48602;45.192;5.722;2022-08-21T07:31:40;99220.53;;;20.30;73.27
62548;BME280;48602;45.192;5.722;2022-08-21T07:34:05;99214.63;;;20.38;73.28
62548;BME280;48602;45.192;5.722;2022-08-21T07:36:30;99217.66;;;20.44;73.40
62548;BME280;48602;45.192;5.722;2022-08-21T07:38:56;99219.00;;;20.50;72.43
62548;BME280;48602;45.192;5.722;2022-08-21T07:41:25;99222.06;;;20.57;73.05
62548;BME280;48602;45.192;5.722;2022-08-21T07:43:53;99216.94;;;20.65;71.97
62548;BME280;48602;45.192;5.722;2022-08-21T07:46:19;99215.47;;;20.72;72.15
62548;BME280;48602;45.192;5.722;2022-08-21T07:48:45;99214.16;;;20.77;72.09
62548;BME280;48602;45.192;5.722;2022-08-21T07:51:12;99211.19;;;20.80;71.18
62548;BME280;48602;45.192;5.722;2022-08-21T07:53:38;99209.13;;;20.84;70.90
62548;BME280;48602;45.192;5.722;2022-08-21T07:56:06;99210.47;;;20.89;71.18
62548;BME280;48602;45.192;5.722;2022-08-21T07:58:33;99204.59;;;20.96;70.70
62548;BME280;48602;45.192;5.722;2022-08-21T08:00:59;99209.47;;;21.02;70.94
62548;BME280;48602;45.192;5.722;2022-08-21T08:03:25;99202.03;;;21.05;70.19
62548;BME280;48602;45.192;5.722;2022-08-21T08:05:51;99199.94;;;21.09;69.70
62548;BME280;48602;45.192;5.722;2022-08-21T08:08:16;99198.00;;;21.11;69.92
62548;BME280;48602;45.192;5.722;2022-08-21T08:10:43;99186.88;;;21.15;69.93
62548;BME280;48602;45.192;5.722;2022-08-21T08:13:08;99188.97;;;21.23;69.16
62548;BME280;48602;45.192;5.722;2022-08-21T08:15:35;99172.50;;;21.28;69.78
62548;BME280;48602;45.192;5.722;2022-08-21T08:18:01;99175.63;;;21.33;69.73
62548;BME280;48602;45.192;5.722;2022-08-21T08:20:26;99174.28;;;21.38;68.68
62548;BME280;48602;45.192;5.722;2022-08-21T08:22:53;99169.53;;;21.42;68.40
62548;BME280;48602;45.192;5.722;2022-08-21T08:25:20;99166.72;;;21.43;68.73
62548;BME280;48602;45.192;5.722;2022-08-21T08:27:45;99174.63;;;21.45;67.78
62548;BME280;48602;45.192;5.722;2022-08-21T08:30:12;99174.22;;;21.49;67.92
62548;BME280;48602;45.192;5.722;2022-08-21T08:32:38;99171.03;;;21.55;68.14
62548;BME280;48602;45.192;5.722;2022-08-21T08:35:05;99166.84;;;21.63;67.58
62548;BME280;48602;45.192;5.722;2022-08-21T08:37:32;99159.84;;;21.71;68.06
62548;BME280;48602;45.192;5.722;2022-08-21T08:39:57;99159.06;;;21.80;67.55
62548;BME280;48602;45.192;5.722;2022-08-21T08:42:30;99157.28;;;21.90;67.12
62548;BME280;48602;45.192;5.722;2022-08-21T08:45:17;99149.41;;;21.99;66.48
62548;BME280;48602;45.192;5.722;2022-08-21T08:47:56;99153.19;;;22.07;66.60
62548;BME280;48602;45.192;5.722;2022-08-21T08:53:04;99139.78;;;22.17;65.53
62548;BME280;48602;45.192;5.722;2022-08-21T08:55:36;99130.50;;;22.21;65.89
62548;BME280;48602;45.192;5.722;2022-08-21T08:58:03;99124.47;;;22.28;65.68
62548;BME280;48602;45.192;5.722;2022-08-21T09:00:30;99130.84;;;22.37;65.16
62548;BME280;48602;45.192;5.722;2022-08-21T09:03:00;99124.09;;;22.43;65.14
62548;BME280;48602;45.192;5.722;2022-08-21T09:05:29;99123.38;;;22.50;65.08
62548;BME280;48602;45.192;5.722;2022-08-21T09:13:24;99112.56;;;22.71;64.01
62548;BME280;48602;45.192;5.722;2022-08-21T09:16:42;99114.59;;;22.79;63.30
62548;BME280;48602;45.192;5.722;2022-08-21T09:27:15;99104.16;;;23.05;62.56
62548;BME280;48602;45.192;5.722;2022-08-21T09:29:46;99111.53;;;23.12;61.16
62548;BME280;48602;45.192;5.722;2022-08-21T09:32:18;99105.13;;;23.13;60.85
62548;BME280;48602;45.192;5.722;2022-08-21T09:40:38;99091.84;;;23.21;61.62
62548;BME280;48602;45.192;5.722;2022-08-21T09:43:22;99090.69;;;23.24;61.10
62548;BME280;48602;45.192;5.722;2022-08-21T09:46:03;99098.19;;;23.30;61.29
62548;BME280;48602;45.192;5.722;2022-08-21T09:48:29;99081.63;;;23.35;61.35
62548;BME280;48602;45.192;5.722;2022-08-21T09:51:10;99089.97;;;23.41;60.69
62548;BME280;48602;45.192;5.722;2022-08-21T09:53:39;99085.69;;;23.48;60.08
62548;BME280;48602;45.192;5.722;2022-08-21T09:56:21;99086.88;;;23.55;60.33
62548;BME280;48602;45.192;5.722;2022-08-21T09:59:29;99072.38;;;23.66;59.71
62548;BME280;48602;45.192;5.722;2022-08-21T10:01:58;99069.84;;;23.74;59.83
62548;BME280;48602;45.192;5.722;2022-08-21T10:04:34;99076.31;;;23.81;58.91
62548;BME280;48602;45.192;5.722;2022-08-21T10:07:13;99049.09;;;23.84;58.49
62548;BME280;48602;45.192;5.722;2022-08-21T10:09:41;99053.06;;;23.90;58.70
62548;BME280;48602;45.192;5.722;2022-08-21T10:14:58;99041.00;;;23.94;58.68
62548;BME280;48602;45.192;5.722;2022-08-21T10:20:27;99032.16;;;24.01;58.98
62548;BME280;48602;45.192;5.722;2022-08-21T10:25:21;99039.22;;;24.12;57.42
62548;BME280;48602;45.192;5.722;2022-08-21T10:47:04;99001.25;;;24.78;56.14
62548;BME280;48602;45.192;5.722;2022-08-21T10:54:57;99005.00;;;25.03;55.14
62548;BME280;48602;45.192;5.722;2022-08-21T10:57:45;98994.06;;;25.04;54.13
62548;BME280;48602;45.192;5.722;2022-08-21T11:00:15;99002.72;;;25.08;54.17
62548;BME280;48602;45.192;5.722;2022-08-21T11:05:35;98978.47;;;25.16;54.04
62548;BME280;48602;45.192;5.722;2022-08-21T11:08:12;98971.44;;;25.23;52.98
62548;BME280;48602;45.192;5.722;2022-08-21T11:10:46;98969.28;;;25.27;52.68
62548;BME280;48602;45.192;5.722;2022-08-21T11:13:33;98959.84;;;25.31;52.78
62548;BME280;48602;45.192;5.722;2022-08-21T11:18:34;98971.59;;;25.48;52.00
62548;BME280;48602;45.192;5.722;2022-08-21T11:21:36;98959.53;;;25.60;51.75
62548;BME280;48602;45.192;5.722;2022-08-21T11:29:48;98946.56;;;25.97;50.70
62548;BME280;48602;45.192;5.722;2022-08-21T11:35:56;98955.88;;;26.03;50.06
62548;BME280;48602;45.192;5.722;2022-08-21T11:38:42;98954.22;;;26.10;50.35
62548;BME280;48602;45.192;5.722;2022-08-21T11:43:48;98941.53;;;26.11;49.34
62548;BME280;48602;45.192;5.722;2022-08-21T11:51:52;98957.44;;;26.14;48.95
62548;BME280;48602;45.192;5.722;2022-08-21T11:56:53;98937.31;;;26.16;49.35
62548;BME280;48602;45.192;5.722;2022-08-21T11:59:25;98935.31;;;26.18;49.15
62548;BME280;48602;45.192;5.722;2022-08-21T12:01:56;98957.50;;;26.30;49.21
62548;BME280;48602;45.192;5.722;2022-08-21T12:04:27;98917.63;;;26.32;49.11
62548;BME280;48602;45.192;5.722;2022-08-21T12:06:54;98950.59;;;26.35;48.97
62548;BME280;48602;45.192;5.722;2022-08-21T12:09:32;98937.22;;;26.34;48.45
62548;BME280;48602;45.192;5.722;2022-08-21T12:12:04;98939.09;;;26.33;48.54
62548;BME280;48602;45.192;5.722;2022-08-21T12:14:43;98935.88;;;26.30;48.15
62548;BME280;48602;45.192;5.722;2022-08-21T12:17:18;98951.59;;;26.34;48.30
62548;BME280;48602;45.192;5.722;2022-08-21T12:19:44;98920.88;;;26.44;48.17
62548;BME280;48602;45.192;5.722;2022-08-21T12:22:13;98910.41;;;26.57;48.33
62548;BME280;48602;45.192;5.722;2022-08-21T12:27:49;98908.88;;;26.70;48.45
62548;BME280;48602;45.192;5.722;2022-08-21T12:33:04;98999.16;;;26.69;47.19
62548;BME280;48602;45.192;5.722;2022-08-21T12:35:42;98934.09;;;26.63;47.43
62548;BME280;48602;45.192;5.722;2022-08-21T12:38:33;98915.78;;;26.65;47.47
62548;BME280;48602;45.192;5.722;2022-08-21T12:41:09;98958.41;;;26.63;46.87
62548;BME280;48602;45.192;5.722;2022-08-21T12:44:20;98934.91;;;26.71;47.39
62548;BME280;48602;45.192;5.722;2022-08-21T12:46:51;98921.91;;;26.75;47.16
62548;BME280;48602;45.192;5.722;2022-08-21T12:49:35;98915.47;;;26.76;46.81
62548;BME280;48602;45.192;5.722;2022-08-21T12:55:15;98908.19;;;26.68;46.73
62548;BME280;48602;45.192;5.722;2022-08-21T12:57:50;98925.13;;;26.62;46.59
62548;BME280;48602;45.192;5.722;2022-08-21T13:00:21;98938.47;;;26.64;45.98
62548;BME280;48602;45.192;5.722;2022-08-21T13:02:49;98912.44;;;26.63;46.31
62548;BME280;48602;45.192;5.722;2022-08-21T13:05:30;98923.09;;;26.64;46.38
62548;BME280;48602;45.192;5.722;2022-08-21T13:07:57;98933.22;;;26.62;46.57
62548;BME280;48602;45.192;5.722;2022-08-21T13:10:28;98900.63;;;26.64;46.02
62548;BME280;48602;45.192;5.722;2022-08-21T13:12:58;98931.19;;;26.72;45.86
62548;BME280;48602;45.192;5.722;2022-08-21T13:15:36;98924.44;;;26.76;45.61
62548;BME280;48602;45.192;5.722;2022-08-21T13:18:05;98902.31;;;26.81;45.79
62548;BME280;48602;45.192;5.722;2022-08-21T13:20:37;98885.38;;;26.87;45.62
62548;BME280;48602;45.192;5.722;2022-08-21T13:23:07;98892.69;;;26.95;45.75
62548;BME280;48602;45.192;5.722;2022-08-21T13:25:40;98900.94;;;27.01;44.94
62548;BME280;48602;45.192;5.722;2022-08-21T13:28:08;98874.38;;;27.05;45.39
62548;BME280;48602;45.192;5.722;2022-08-21T13:30:39;98897.53;;;27.16;44.32
62548;BME280;48602;45.192;5.722;2022-08-21T13:33:05;98887.03;;;27.21;44.35
62548;BME280;48602;45.192;5.722;2022-08-21T13:35:44;98867.56;;;27.25;44.36
62548;BME280;48602;45.192;5.722;2022-08-21T13:38:12;98881.63;;;27.29;44.52
62548;BME280;48602;45.192;5.722;2022-08-21T13:40:48;98872.94;;;27.33;44.62
62548;BME280;48602;45.192;5.722;2022-08-21T13:43:17;98864.47;;;27.44;44.77
62548;BME280;48602;45.192;5.722;2022-08-21T13:45:47;98882.56;;;27.60;44.16
62548;BME280;48602;45.192;5.722;2022-08-21T13:48:13;98860.97;;;27.75;43.22
62548;BME280;48602;45.192;5.722;2022-08-21T13:50:40;98875.31;;;27.84;41.97
62548;BME280;48602;45.192;5.722;2022-08-21T13:53:23;98886.66;;;27.87;42.19
62548;BME280;48602;45.192;5.722;2022-08-21T13:55:49;98874.47;;;27.83;42.18
62548;BME280;48602;45.192;5.722;2022-08-21T13:58:25;98872.66;;;27.75;41.74
62548;BME280;48602;45.192;5.722;2022-08-21T14:00:51;98873.69;;;27.74;42.31
62548;BME280;48602;45.192;5.722;2022-08-21T14:03:38;98895.44;;;27.89;41.75
62548;BME280;48602;45.192;5.722;2022-08-21T14:06:17;98851.91;;;27.91;41.17
62548;BME280;48602;45.192;5.722;2022-08-21T14:08:50;98849.22;;;27.83;41.88
62548;BME280;48602;45.192;5.722;2022-08-21T14:11:16;98899.88;;;27.82;40.74
62548;BME280;48602;45.192;5.722;2022-08-21T14:13:50;98849.38;;;27.89;41.30
62548;BME280;48602;45.192;5.722;2022-08-21T14:16:21;98862.34;;;28.02;40.89
62548;BME280;48602;45.192;5.722;2022-08-21T14:18:53;98851.63;;;28.08;41.00
62548;BME280;48602;45.192;5.722;2022-08-21T14:21:34;98832.31;;;28.11;40.39
62548;BME280;48602;45.192;5.722;2022-08-21T14:24:11;98845.19;;;28.09;41.13
62548;BME280;48602;45.192;5.722;2022-08-21T14:26:50;98853.31;;;28.09;40.05
62548;BME280;48602;45.192;5.722;2022-08-21T14:29:19;98858.00;;;28.15;39.78
62548;BME280;48602;45.192;5.722;2022-08-21T14:31:50;98833.06;;;28.28;40.37
62548;BME280;48602;45.192;5.722;2022-08-21T14:34:16;98844.56;;;28.30;40.24
62548;BME280;48602;45.192;5.722;2022-08-21T14:36:43;98833.91;;;28.29;39.87
62548;BME280;48602;45.192;5.722;2022-08-21T14:39:09;98843.41;;;28.25;40.15